Ohgi Maru — JD3850 — position and weather

sailwx.info

Track history (hours):
 
Tides and Currents Weather Stations Pressure Air Temp Water Temp Dewpoint Dewpoint Depression Visibility Wind Speed Wind Dir Waves Ship Positions

Ohgi Maru

Last reported at 2017-Oct-17 12:30 UTC. Time now 2017-Oct-17 13:00 UTC.
Position N 35°27' E 139°40'.

Length 37 m; draft 3 m.

Type: Tug. MMSI: 431006373.

Date/timePositionNaut miles runAvg speedWind from/ knotsBaromVisibWave heightAir tempDewpointWater temp
2017-Oct-17 12:30N 35°27' E 139°40'0 0.1
2017-Oct-17 12:01N 35°27' E 139°39'0 0.1
2017-Oct-17 11:31N 35°27' E 139°40'0 0.0
2017-Oct-17 11:00N 35°27' E 139°40'0 0.0
2017-Oct-17 10:30N 35°27' E 139°40'0 0.1
2017-Oct-17 10:01N 35°27' E 139°39'0 0.1
2017-Oct-17 09:31N 35°27' E 139°40'1 2.5
2017-Oct-17 09:01N 35°26' E 139°41'1 2.3
2017-Oct-17 08:30N 35°26' E 139°42'1 2.5
2017-Oct-17 08:00N 35°27' E 139°42'0 0.4
2017-Oct-17 07:31N 35°27' E 139°42'0 0.0
2017-Oct-17 07:01N 35°27' E 139°42'0 0.0
2017-Oct-17 06:31N 35°27' E 139°42'2 4.8
2017-Oct-17 06:00N 35°25' E 139°41'0 0.3
2017-Oct-17 05:31N 35°25' E 139°41'3 6.4
2017-Oct-17 05:01N 35°28' E 139°40'0 0.7
2017-Oct-17 04:30N 35°28' E 139°39'1 2.4
2017-Oct-17 04:01N 35°27' E 139°40'2 3.6
2017-Oct-17 03:30N 35°26' E 139°42'2 4.1
2017-Oct-17 03:01N 35°27' E 139°39'0 0.1
2017-Oct-17 02:31N 35°27' E 139°40'0 0.5
2017-Oct-17 02:01N 35°27' E 139°40'3 4.9
2017-Oct-17 01:26N 35°28' E 139°43'0 0.0
2017-Oct-17 00:54N 35°28' E 139°43'0 0.0
2017-Oct-17 00:30N 35°28' E 139°43'1 1.4
2017-Oct-17 00:01N 35°27' E 139°43'2 3.3
2017-Oct-16 23:31N 35°26' E 139°45'1 2.7
2017-Oct-16 23:00N 35°27' E 139°43'3 6.2
2017-Oct-16 22:31N 35°27' E 139°40'0 0.1
2017-Oct-16 22:01N 35°27' E 139°39'0 0.0
2017-Oct-16 21:30N 35°27' E 139°39'0 0.1
2017-Oct-16 21:00N 35°27' E 139°40'0 0.0
2017-Oct-16 20:30N 35°27' E 139°40'0 0.0
2017-Oct-16 20:00N 35°27' E 139°40'0 0.1
2017-Oct-16 19:31N 35°27' E 139°39'0 0.1
2017-Oct-16 19:01N 35°27' E 139°40'0 0.0
2017-Oct-16 18:31N 35°27' E 139°40'0 0.0
2017-Oct-16 18:01N 35°27' E 139°40'0 0.0
2017-Oct-16 17:31N 35°27' E 139°40'0 0.0
2017-Oct-16 17:01N 35°27' E 139°40'0 0.1
2017-Oct-16 16:31N 35°27' E 139°39'0 0.1
2017-Oct-16 16:01N 35°27' E 139°40'0 0.0
2017-Oct-16 15:31N 35°27' E 139°40'0 0.0
2017-Oct-16 15:00N 35°27' E 139°40'0 0.0
2017-Oct-16 14:31N 35°27' E 139°40'0 0.0
2017-Oct-16 13:30N 35°27' E 139°40'0 0.0
2017-Oct-16 13:01N 35°27' E 139°40'0 0.1
2017-Oct-16 12:31N 35°27' E 139°39'0 0.1
2017-Oct-16 12:00N 35°27' E 139°40'0 0.0
2017-Oct-16 11:31N 35°27' E 139°40'0 0.1
2017-Oct-16 11:01N 35°27' E 139°39'0 0.0
2017-Oct-16 10:31N 35°27' E 139°39'0 0.0
2017-Oct-16 10:00N 35°27' E 139°39'0 0.1
2017-Oct-16 09:30N 35°27' E 139°40'0 0.0
2017-Oct-16 09:01N 35°27' E 139°40'0 0.1
2017-Oct-16 08:31N 35°27' E 139°39'0 0.0
2017-Oct-16 08:00N 35°27' E 139°39'0 0.1
2017-Oct-16 07:30N 35°27' E 139°40'0 0.0
2017-Oct-16 07:01N 35°27' E 139°40'0 0.0
2017-Oct-16 06:31N 35°27' E 139°40'0 0.0
2017-Oct-16 06:01N 35°27' E 139°40'0 0.0
2017-Oct-16 05:31N 35°27' E 139°40'0 0.0
2017-Oct-16 05:01N 35°27' E 139°40'0 0.0
2017-Oct-16 04:31N 35°27' E 139°40'0 0.1
2017-Oct-16 04:00N 35°27' E 139°39'0 0.1
2017-Oct-16 03:31N 35°27' E 139°40'0 0.0
2017-Oct-16 03:00N 35°27' E 139°40'0 0.0
2017-Oct-16 02:30N 35°27' E 139°40'0 0.0
2017-Oct-16 02:01N 35°27' E 139°40'0 0.1
2017-Oct-16 01:30N 35°27' E 139°39'0 0.1
2017-Oct-16 01:01N 35°27' E 139°40'0 0.1
2017-Oct-16 00:31N 35°27' E 139°39'0 0.0
2017-Oct-16 00:00N 35°27' E 139°39'0 0.0
2017-Oct-15 23:31N 35°27' E 139°39'1 2.9
2017-Oct-15 23:00N 35°28' E 139°41'0 0.5
2017-Oct-15 22:31N 35°28' E 139°41'2 3.1
2017-Oct-15 22:01N 35°28' E 139°43'3 5.2
2017-Oct-15 21:31N 35°26' E 139°45'2 4.3
2017-Oct-15 21:00N 35°27' E 139°43'3 6.2
2017-Oct-15 20:30N 35°27' E 139°39'1 1.1
2017-Oct-15 20:01N 35°27' E 139°40'0 0.0
2017-Oct-15 19:30N 35°27' E 139°40'0 0.0
2017-Oct-15 19:01N 35°27' E 139°40'0 0.0
2017-Oct-15 18:30N 35°27' E 139°40'0 0.1
2017-Oct-15 18:01N 35°27' E 139°39'0 0.1
2017-Oct-15 17:31N 35°27' E 139°40'0 0.0
2017-Oct-15 17:00N 35°27' E 139°40'0 0.0
2017-Oct-15 16:31N 35°27' E 139°40'0 0.0
2017-Oct-15 16:00N 35°27' E 139°40'0 0.0
2017-Oct-15 15:30N 35°27' E 139°40'0 0.0
2017-Oct-15 15:00N 35°27' E 139°40'6 6.2
2017-Oct-15 14:00N 35°30' E 139°46'0 0.2
2017-Oct-15 13:30N 35°30' E 139°46'0 0.2
2017-Oct-15 13:01N 35°30' E 139°46'0 0.0
2017-Oct-15 12:31N 35°30' E 139°46'0 0.0
2017-Oct-15 11:59N 35°30' E 139°46'0 0.0
2017-Oct-15 11:30N 35°30' E 139°46'0 0.0
2017-Oct-15 10:59N 35°30' E 139°46'0 0.0
2017-Oct-15 10:30N 35°30' E 139°46'0 0.2
2017-Oct-15 10:01N 35°30' E 139°46'0 1.0
2017-Oct-15 09:31N 35°29' E 139°46'1 2.8
2017-Oct-15 09:00N 35°28' E 139°45'1 2.3
2017-Oct-15 08:30N 35°28' E 139°43'0 0.0
2017-Oct-15 08:00N 35°28' E 139°43'0 0.8
2017-Oct-15 07:30N 35°28' E 139°43'1 2.3
2017-Oct-15 07:00N 35°28' E 139°42'2 3.5
2017-Oct-15 06:31N 35°27' E 139°43'1 2.6
2017-Oct-15 06:00N 35°27' E 139°42'2 3.8
2017-Oct-15 05:31N 35°27' E 139°40'0 0.0
2017-Oct-15 05:00N 35°27' E 139°40'0 0.0
2017-Oct-15 04:31N 35°27' E 139°40'0 0.0
2017-Oct-15 04:00N 35°27' E 139°40'0 0.0
2017-Oct-15 03:31N 35°27' E 139°40'0 0.0
2017-Oct-15 03:00N 35°27' E 139°40'0 0.0
2017-Oct-15 02:30N 35°27' E 139°40'0 0.0
2017-Oct-15 02:00N 35°27' E 139°40'0 0.2
2017-Oct-15 01:31N 35°27' E 139°40'4 8.1
2017-Oct-15 01:00N 35°28' E 139°45'0 0.6
2017-Oct-15 00:30N 35°28' E 139°44'1 1.7
2017-Oct-15 00:00N 35°28' E 139°44'0 0.0
2017-Oct-14 23:30N 35°28' E 139°44'0 0.0
2017-Oct-14 23:01N 35°28' E 139°44'0 0.0
2017-Oct-14 22:30N 35°28' E 139°44'2 4.2
2017-Oct-14 22:01N 35°27' E 139°41'0 0.4
2017-Oct-14 21:30N 35°27' E 139°42'2 4.8
2017-Oct-14 21:00N 35°27' E 139°45'4 8.3
2017-Oct-14 20:30N 35°27' E 139°40'0 0.0
2017-Oct-14 20:01N 35°27' E 139°40'0 0.0
2017-Oct-14 19:31N 35°27' E 139°40'0 0.0
2017-Oct-14 19:00N 35°27' E 139°40'0 0.0
2017-Oct-14 18:31N 35°27' E 139°40'0 0.0
2017-Oct-14 18:01N 35°27' E 139°40'0 0.0
2017-Oct-14 17:31N 35°27' E 139°40'0 0.0
2017-Oct-14 17:00N 35°27' E 139°40'0 0.0
2017-Oct-14 16:31N 35°27' E 139°40'0 0.0
2017-Oct-14 16:01N 35°27' E 139°40'0 0.0
2017-Oct-14 15:31N 35°27' E 139°40'0 0.0
2017-Oct-14 15:00N 35°27' E 139°40'0 0.0
2017-Oct-14 14:31N 35°27' E 139°40'0 0.0
2017-Oct-14 14:01N 35°27' E 139°40'0 0.0
2017-Oct-14 13:30N 35°27' E 139°40'0 0.0
2017-Oct-14 13:01N 35°27' E 139°40'0 0.0
2017-Oct-14 12:31N 35°27' E 139°40'0 0.0
2017-Oct-14 12:01N 35°27' E 139°40'0 0.0
2017-Oct-14 11:31N 35°27' E 139°40'0 0.0
2017-Oct-14 11:00N 35°27' E 139°40'0 0.1
2017-Oct-14 10:30N 35°27' E 139°39'1 1.0
2017-Oct-14 10:00N 35°27' E 139°40'1 1.2
2017-Oct-14 09:31N 35°27' E 139°40'1 1.7
2017-Oct-14 09:01N 35°27' E 139°39'0 0.1
2017-Oct-14 08:30N 35°27' E 139°40'0 0.0
2017-Oct-14 08:00N 35°27' E 139°40'0 0.0
2017-Oct-14 07:31N 35°27' E 139°40'0 0.0
2017-Oct-14 07:00N 35°27' E 139°40'0 0.0
2017-Oct-14 06:31N 35°27' E 139°40'0 0.0
2017-Oct-14 06:00N 35°27' E 139°40'0 0.0
2017-Oct-14 05:31N 35°27' E 139°40'0 0.0
2017-Oct-14 05:00N 35°27' E 139°40'0 0.0
2017-Oct-14 04:31N 35°27' E 139°40'0 0.0
2017-Oct-14 04:01N 35°27' E 139°40'0 0.0
2017-Oct-14 03:30N 35°27' E 139°40'0 0.0
2017-Oct-14 03:01N 35°27' E 139°40'0 0.0
2017-Oct-14 02:31N 35°27' E 139°40'0 0.1
2017-Oct-14 02:01N 35°27' E 139°39'0 0.1
2017-Oct-14 01:30N 35°27' E 139°40'0 0.0
2017-Oct-14 01:00N 35°27' E 139°40'0 0.1
2017-Oct-14 00:30N 35°27' E 139°39'0 0.1
2017-Oct-14 00:00N 35°27' E 139°40'1 2.1
2017-Oct-13 23:30N 35°28' E 139°40'1 2.2
2017-Oct-13 23:01N 35°28' E 139°41'1 2.6
2017-Oct-13 22:30N 35°27' E 139°43'1 2.6
2017-Oct-13 22:00N 35°27' E 139°44'4 7.9
2017-Oct-13 21:31N 35°27' E 139°40'0 0.0
2017-Oct-13 21:00N 35°27' E 139°40'0 0.0
2017-Oct-13 20:30N 35°27' E 139°40'0 0.1
2017-Oct-13 20:01N 35°27' E 139°39'0 0.1
2017-Oct-13 19:31N 35°27' E 139°40'0 0.0
2017-Oct-13 19:00N 35°27' E 139°40'0 0.1
2017-Oct-13 18:30N 35°27' E 139°39'0 0.0
2017-Oct-13 18:00N 35°27' E 139°39'0 0.1
2017-Oct-13 17:30N 35°27' E 139°40'0 0.1
2017-Oct-13 17:00N 35°27' E 139°39'0 0.0
2017-Oct-13 16:30N 35°27' E 139°39'0 0.1
2017-Oct-13 16:01N 35°27' E 139°40'0 0.0
2017-Oct-13 15:30N 35°27' E 139°40'0 0.0
2017-Oct-13 15:00N 35°27' E 139°40'0 0.0
2017-Oct-13 14:30N 35°27' E 139°40'0 0.0
2017-Oct-13 14:00N 35°27' E 139°40'0 0.0
2017-Oct-13 13:31N 35°27' E 139°40'0 0.0
2017-Oct-13 13:00N 35°27' E 139°40'0 0.0
2017-Oct-13 12:31N 35°27' E 139°40'0 0.1
2017-Oct-13 12:01N 35°27' E 139°39'0 0.1
2017-Oct-13 11:30N 35°27' E 139°40'0 0.0
2017-Oct-13 11:01N 35°27' E 139°40'0 0.1
2017-Oct-13 10:30N 35°27' E 139°39'0 0.0
2017-Oct-13 10:01N 35°27' E 139°39'0 0.0
2017-Oct-13 09:31N 35°27' E 139°39'0 0.1
2017-Oct-13 09:00N 35°27' E 139°40'0 0.0
2017-Oct-13 08:31N 35°27' E 139°40'0 0.1
2017-Oct-13 08:00N 35°27' E 139°39'0 0.1
2017-Oct-13 07:30N 35°27' E 139°40'0 0.0
2017-Oct-13 07:01N 35°27' E 139°40'0 0.0
2017-Oct-13 06:31N 35°27' E 139°40'0 0.1
2017-Oct-13 06:01N 35°27' E 139°39'0 0.0
2017-Oct-13 05:31N 35°27' E 139°39'0 0.1
2017-Oct-13 05:00N 35°27' E 139°40'4 7.4
2017-Oct-13 04:30N 35°29' E 139°43'3 6.0
2017-Oct-13 04:00N 35°31' E 139°46'2 4.9
2017-Oct-13 03:30N 35°30' E 139°44'2 4.1
2017-Oct-13 03:00N 35°28' E 139°44'0 0.7
2017-Oct-13 02:30N 35°28' E 139°44'0 0.0
2017-Oct-13 02:00N 35°28' E 139°44'0 0.0
2017-Oct-13 01:30N 35°28' E 139°44'3 5.6
2017-Oct-13 00:59N 35°30' E 139°46'0 0.1
2017-Oct-13 00:30N 35°30' E 139°47'1 2.3
2017-Oct-13 00:00N 35°29' E 139°48'2 4.7
2017-Oct-12 23:30N 35°28' E 139°45'1 2.4
2017-Oct-12 23:00N 35°28' E 139°44'0 0.0
2017-Oct-12 22:30N 35°28' E 139°44'0 0.0
2017-Oct-12 22:00N 35°28' E 139°44'0 0.1
2017-Oct-12 21:30N 35°28' E 139°44'2 3.5
2017-Oct-12 21:00N 35°28' E 139°42'0 0.2
2017-Oct-12 20:30N 35°28' E 139°42'1 1.5
2017-Oct-12 20:01N 35°28' E 139°42'2 4.2
2017-Oct-12 19:30N 35°27' E 139°40'0 0.0
2017-Oct-12 19:00N 35°27' E 139°40'0 0.0
2017-Oct-12 18:30N 35°27' E 139°40'0 0.0
2017-Oct-12 18:00N 35°27' E 139°40'0 0.1
2017-Oct-12 17:30N 35°27' E 139°39'0 0.0
2017-Oct-12 17:00N 35°27' E 139°39'0 0.0
2017-Oct-12 16:30N 35°27' E 139°39'0 0.1
2017-Oct-12 16:00N 35°27' E 139°40'0 0.1
2017-Oct-12 15:30N 35°27' E 139°39'0 0.1
2017-Oct-12 15:00N 35°27' E 139°40'0 0.1
2017-Oct-12 14:30N 35°27' E 139°39'0 0.1
2017-Oct-12 14:00N 35°27' E 139°40'0 0.0
2017-Oct-12 13:30N 35°27' E 139°40'0 0.0
2017-Oct-12 13:00N 35°27' E 139°40'0 0.0
2017-Oct-12 12:30N 35°27' E 139°40'0 0.1
2017-Oct-12 12:00N 35°27' E 139°39'0 0.0
2017-Oct-12 11:30N 35°27' E 139°39'0 0.1
2017-Oct-12 11:00N 35°27' E 139°40'0 0.1
2017-Oct-12 10:30N 35°27' E 139°39'0 0.0
2017-Oct-12 10:00N 35°27' E 139°39'0 0.0
2017-Oct-12 09:30N 35°27' E 139°39'0 0.1
2017-Oct-12 09:00N 35°27' E 139°40'0 0.0
2017-Oct-12 08:30N 35°27' E 139°40'0 0.0
2017-Oct-12 08:00N 35°27' E 139°40'0 0.1
2017-Oct-12 07:30N 35°27' E 139°39'0 0.1
2017-Oct-12 07:00N 35°27' E 139°40'0 0.0
2017-Oct-12 06:30N 35°27' E 139°40'0 0.9
2017-Oct-12 06:00N 35°27' E 139°40'4 7.3
2017-Oct-12 05:30N 35°24' E 139°41'0 0.9
2017-Oct-12 05:00N 35°24' E 139°41'1 1.9
2017-Oct-12 04:30N 35°23' E 139°40'0 0.0
2017-Oct-12 04:00N 35°23' E 139°40'0 0.0
2017-Oct-12 03:30N 35°23' E 139°40'0 0.0
2017-Oct-12 03:00N 35°23' E 139°40'0 0.0
2017-Oct-12 02:30N 35°23' E 139°40'4 8.5
2017-Oct-12 02:00N 35°27' E 139°43'1 1.7
2017-Oct-12 01:30N 35°28' E 139°43'0 0.9
2017-Oct-12 01:00N 35°27' E 139°43'2 4.5
2017-Oct-12 00:30N 35°28' E 139°41'0 0.0
2017-Oct-12 00:00N 35°28' E 139°41'0 0.0
2017-Oct-11 23:30N 35°28' E 139°41'0 0.0
2017-Oct-11 23:00N 35°28' E 139°41'2 1.2
2017-Oct-11 21:14N 35°26' E 139°43'0 1.1
2017-Oct-11 20:53N 35°27' E 139°42'2 0.1
2017-Oct-10 23:51N 35°27' E 139°40'0 0.0
2017-Oct-10 23:25N 35°27' E 139°40'0 0.1
2017-Oct-10 22:57N 35°27' E 139°39'0 0.1
2017-Oct-10 22:29N 35°27' E 139°40'0 0.0
2017-Oct-10 22:00N 35°27' E 139°40'0 0.0
2017-Oct-10 21:22N 35°27' E 139°40'0 0.0
2017-Oct-10 21:00N 35°27' E 139°40'0 0.1
2017-Oct-10 20:29N 35°27' E 139°39'0 0.1
2017-Oct-10 20:00N 35°27' E 139°40'0 0.1
2017-Oct-10 19:25N 35°27' E 139°39'0 0.0
2017-Oct-10 18:54N 35°27' E 139°39'0 0.0
2017-Oct-10 18:23N 35°27' E 139°39'0 0.0
2017-Oct-10 18:00N 35°27' E 139°39'0 0.0
2017-Oct-10 17:29N 35°27' E 139°39'0 0.1
2017-Oct-10 17:00N 35°27' E 139°40'0 0.1
2017-Oct-10 16:30N 35°27' E 139°39'0 0.1
2017-Oct-10 16:00N 35°27' E 139°40'0 0.0
2017-Oct-10 15:30N 35°27' E 139°40'0 0.0
2017-Oct-10 15:00N 35°27' E 139°40'0 0.0
2017-Oct-10 14:00N 35°27' E 139°40'0 0.1
2017-Oct-10 13:30N 35°27' E 139°39'0 0.1
2017-Oct-10 13:00N 35°27' E 139°40'0 0.0
2017-Oct-10 12:30N 35°27' E 139°40'0 0.1
2017-Oct-10 11:53N 35°27' E 139°39'0 0.0
2017-Oct-10 11:30N 35°27' E 139°39'0 0.1
2017-Oct-10 10:53N 35°27' E 139°40'0 0.0
2017-Oct-10 10:29N 35°27' E 139°40'0 0.0
2017-Oct-10 09:54N 35°27' E 139°40'0 0.1
2017-Oct-10 09:21N 35°27' E 139°39'0 0.1
2017-Oct-10 08:55N 35°27' E 139°40'0 0.1
2017-Oct-10 08:24N 35°27' E 139°39'0 0.1
2017-Oct-10 07:59N 35°27' E 139°40'0 0.0
2017-Oct-10 07:30N 35°27' E 139°40'0 0.0
2017-Oct-10 07:00N 35°27' E 139°40'0 0.0
2017-Oct-10 06:30N 35°27' E 139°40'0 0.0
2017-Oct-10 06:00N 35°27' E 139°40'0 0.0
2017-Oct-10 05:30N 35°27' E 139°40'0 0.0
2017-Oct-10 05:00N 35°27' E 139°40'0 0.0
2017-Oct-10 04:30N 35°27' E 139°40'0 0.0
2017-Oct-10 04:00N 35°27' E 139°40'0 0.1
2017-Oct-10 03:30N 35°27' E 139°39'0 0.1
2017-Oct-10 03:00N 35°27' E 139°40'0 0.0
2017-Oct-10 02:30N 35°27' E 139°40'0 0.0
2017-Oct-10 02:00N 35°27' E 139°40'0 0.0
2017-Oct-10 01:30N 35°27' E 139°40'0 0.1
2017-Oct-10 01:00N 35°27' E 139°39'0 0.1
2017-Oct-10 00:30N 35°27' E 139°40'0 0.0
2017-Oct-10 00:00N 35°27' E 139°40'0 0.0
2017-Oct-09 23:30N 35°27' E 139°40'0 0.1
2017-Oct-09 23:00N 35°27' E 139°39'0 0.1
2017-Oct-09 22:31N 35°27' E 139°40'1 2.6
2017-Oct-09 22:00N 35°26' E 139°41'1 0.7
2017-Oct-09 20:50N 35°26' E 139°42'2 4.2
2017-Oct-09 20:22N 35°27' E 139°40'0 0.0
2017-Oct-09 20:00N 35°27' E 139°40'0 0.0
2017-Oct-09 19:30N 35°27' E 139°40'0 0.1
2017-Oct-09 19:00N 35°27' E 139°39'0 0.1
2017-Oct-09 18:29N 35°27' E 139°40'0 0.0
2017-Oct-09 17:59N 35°27' E 139°40'0 0.0
2017-Oct-09 17:30N 35°27' E 139°40'0 0.0
2017-Oct-09 16:56N 35°27' E 139°40'0 0.0
2017-Oct-09 16:17N 35°27' E 139°40'0 0.0
2017-Oct-09 15:49N 35°27' E 139°40'0 0.0
2017-Oct-09 14:11N 35°27' E 139°39'0 0.2
2017-Oct-09 13:58N 35°27' E 139°40'0 0.0
2017-Oct-09 11:54N 35°27' E 139°39'3 7.4
2017-Oct-09 11:30N 35°25' E 139°42'1 1.9
2017-Oct-09 10:54N 35°24' E 139°41'2 3.4
2017-Oct-09 10:21N 35°25' E 139°43'1 4.0
2017-Oct-09 10:00N 35°25' E 139°42'0 0.0
2017-Oct-09 09:30N 35°25' E 139°42'0 0.0
2017-Oct-09 08:53N 35°26' E 139°42'1 1.9
2017-Oct-09 08:30N 35°25' E 139°41'1 2.0
2017-Oct-09 08:00N 35°25' E 139°42'0 0.4
2017-Oct-09 06:53N 35°26' E 139°42'1 2.7
2017-Oct-09 06:28N 35°27' E 139°41'1 1.3
2017-Oct-09 05:59N 35°26' E 139°41'0 0.1
2017-Oct-09 05:30N 35°26' E 139°41'1 2.5
2017-Oct-09 04:59N 35°27' E 139°40'0 0.0
2017-Oct-09 03:31N 35°27' E 139°39'0 3.0
2017-Oct-09 03:30N 35°27' E 139°40'0 0.0
2017-Oct-09 02:36N 35°27' E 139°40'0 0.3
2017-Oct-09 02:24N 35°27' E 139°39'1 1.4
2017-Oct-09 01:58N 35°27' E 139°40'1 2.0
2017-Oct-09 01:30N 35°27' E 139°41'0 0.5
2017-Oct-09 00:57N 35°27' E 139°41'1 2.8
2017-Oct-09 00:27N 35°27' E 139°40'0 0.0
2017-Oct-08 23:58N 35°27' E 139°40'0 0.0
2017-Oct-08 23:30N 35°27' E 139°40'0 0.0
2017-Oct-08 22:51N 35°27' E 139°40'0 0.1
2017-Oct-08 22:30N 35°27' E 139°39'0 0.1
2017-Oct-08 21:57N 35°27' E 139°40'0 0.0
2017-Oct-08 21:30N 35°27' E 139°40'0 0.0
2017-Oct-08 21:00N 35°27' E 139°40'0 0.0
2017-Oct-08 20:30N 35°27' E 139°40'0 0.1
2017-Oct-08 20:00N 35°27' E 139°39'0 0.1
2017-Oct-08 19:30N 35°27' E 139°40'0 0.0
2017-Oct-08 19:00N 35°27' E 139°40'0 0.1
2017-Oct-08 18:30N 35°27' E 139°39'0 0.1
2017-Oct-08 18:00N 35°27' E 139°40'0 0.0
2017-Oct-08 17:30N 35°27' E 139°40'0 0.0
2017-Oct-08 17:00N 35°27' E 139°40'0 0.1
2017-Oct-08 16:30N 35°27' E 139°39'0 0.1
2017-Oct-08 16:00N 35°27' E 139°40'0 0.0
2017-Oct-08 15:30N 35°27' E 139°40'0 0.0
2017-Oct-08 15:00N 35°27' E 139°40'0 0.0
2017-Oct-08 14:30N 35°27' E 139°40'0 0.0
2017-Oct-08 14:00N 35°27' E 139°40'0 0.0
2017-Oct-08 13:30N 35°27' E 139°40'0 0.1
2017-Oct-08 13:00N 35°27' E 139°39'0 0.0
2017-Oct-08 12:30N 35°27' E 139°39'0 0.0
2017-Oct-08 12:00N 35°27' E 139°39'0 0.1
2017-Oct-08 11:30N 35°27' E 139°40'0 0.1
2017-Oct-08 11:00N 35°27' E 139°39'0 0.0
2017-Oct-08 10:30N 35°27' E 139°39'0 0.0
2017-Oct-08 10:00N 35°27' E 139°39'0 0.0
2017-Oct-08 09:30N 35°27' E 139°39'0 0.0
2017-Oct-08 09:00N 35°27' E 139°39'0 0.0
2017-Oct-08 08:30N 35°27' E 139°39'0 0.0
2017-Oct-08 08:00N 35°27' E 139°39'0 0.1
2017-Oct-08 07:30N 35°27' E 139°40'0 0.1
2017-Oct-08 07:00N 35°27' E 139°39'0 0.1
2017-Oct-08 06:30N 35°27' E 139°40'0 0.0
2017-Oct-08 06:00N 35°27' E 139°40'0 0.0
2017-Oct-08 05:30N 35°27' E 139°40'0 0.0
2017-Oct-08 05:00N 35°27' E 139°40'0 0.0
2017-Oct-08 04:30N 35°27' E 139°40'0 0.0
2017-Oct-08 04:00N 35°27' E 139°40'0 0.0
2017-Oct-08 03:30N 35°27' E 139°40'0 0.0
2017-Oct-08 03:00N 35°27' E 139°40'0 0.1
2017-Oct-08 02:30N 35°27' E 139°39'0 0.0
2017-Oct-08 02:00N 35°27' E 139°39'0 0.1
2017-Oct-08 01:30N 35°27' E 139°40'0 0.1
2017-Oct-08 01:00N 35°27' E 139°39'0 0.1
2017-Oct-08 00:30N 35°27' E 139°40'0 0.0
2017-Oct-08 00:00N 35°27' E 139°40'0 0.0
2017-Oct-07 23:30N 35°27' E 139°40'0 0.0
2017-Oct-07 23:00N 35°27' E 139°40'0 0.1
2017-Oct-07 22:30N 35°27' E 139°39'0 0.1
2017-Oct-07 22:00N 35°27' E 139°40'0 0.0
2017-Oct-07 21:30N 35°27' E 139°40'0 0.0
2017-Oct-07 21:00N 35°27' E 139°40'0 0.1
2017-Oct-07 20:30N 35°27' E 139°39'0 0.1
2017-Oct-07 20:00N 35°27' E 139°40'0 0.1
2017-Oct-07 19:30N 35°27' E 139°39'0 0.1
2017-Oct-07 19:00N 35°27' E 139°40'0 0.0
2017-Oct-07 18:30N 35°27' E 139°40'0 0.0
2017-Oct-07 18:00N 35°27' E 139°40'0 0.0
2017-Oct-07 17:30N 35°27' E 139°40'0 0.0
2017-Oct-07 17:00N 35°27' E 139°40'0 0.0
2017-Oct-07 16:30N 35°27' E 139°40'0 0.0
2017-Oct-07 16:00N 35°27' E 139°40'0 0.0
2017-Oct-07 15:30N 35°27' E 139°40'0 0.0
2017-Oct-07 15:00N 35°27' E 139°40'0 0.0
2017-Oct-07 14:30N 35°27' E 139°40'0 0.0
2017-Oct-07 14:00N 35°27' E 139°40'0 0.0
2017-Oct-07 13:30N 35°27' E 139°40'0 0.0
2017-Oct-07 13:00N 35°27' E 139°40'0 0.0
2017-Oct-07 12:30N 35°27' E 139°40'  
Track history (hours):
 
Tides and Currents Weather Stations Pressure Air Temp Water Temp Dewpoint Dewpoint Depression Visibility Wind Speed Wind Dir Waves Ship Positions

Ohgi Maru

Last reported at 2017-Oct-17 12:30 UTC. Time now 2017-Oct-17 13:00 UTC.
Position N 35°27' E 139°40'.

Length 37 m; draft 3 m.

Type: Tug. MMSI: 431006373.

Date/timePositionNaut miles runAvg speedWind from/ knotsBaromVisibWave heightAir tempDewpointWater temp
2017-Oct-17 12:30N 35°27' E 139°40'0 0.1
2017-Oct-17 12:01N 35°27' E 139°39'0 0.1
2017-Oct-17 11:31N 35°27' E 139°40'0 0.0
2017-Oct-17 11:00N 35°27' E 139°40'0 0.0
2017-Oct-17 10:30N 35°27' E 139°40'0 0.1
2017-Oct-17 10:01N 35°27' E 139°39'0 0.1
2017-Oct-17 09:31N 35°27' E 139°40'1 2.5
2017-Oct-17 09:01N 35°26' E 139°41'1 2.3
2017-Oct-17 08:30N 35°26' E 139°42'1 2.5
2017-Oct-17 08:00N 35°27' E 139°42'0 0.4
2017-Oct-17 07:31N 35°27' E 139°42'0 0.0
2017-Oct-17 07:01N 35°27' E 139°42'0 0.0
2017-Oct-17 06:31N 35°27' E 139°42'2 4.8
2017-Oct-17 06:00N 35°25' E 139°41'0 0.3
2017-Oct-17 05:31N 35°25' E 139°41'3 6.4
2017-Oct-17 05:01N 35°28' E 139°40'0 0.7
2017-Oct-17 04:30N 35°28' E 139°39'1 2.4
2017-Oct-17 04:01N 35°27' E 139°40'2 3.6
2017-Oct-17 03:30N 35°26' E 139°42'2 4.1
2017-Oct-17 03:01N 35°27' E 139°39'0 0.1
2017-Oct-17 02:31N 35°27' E 139°40'0 0.5
2017-Oct-17 02:01N 35°27' E 139°40'3 4.9
2017-Oct-17 01:26N 35°28' E 139°43'0 0.0
2017-Oct-17 00:54N 35°28' E 139°43'0 0.0
2017-Oct-17 00:30N 35°28' E 139°43'1 1.4
2017-Oct-17 00:01N 35°27' E 139°43'2 3.3
2017-Oct-16 23:31N 35°26' E 139°45'1 2.7
2017-Oct-16 23:00N 35°27' E 139°43'3 6.2
2017-Oct-16 22:31N 35°27' E 139°40'0 0.1
2017-Oct-16 22:01N 35°27' E 139°39'0 0.0
2017-Oct-16 21:30N 35°27' E 139°39'0 0.1
2017-Oct-16 21:00N 35°27' E 139°40'0 0.0
2017-Oct-16 20:30N 35°27' E 139°40'0 0.0
2017-Oct-16 20:00N 35°27' E 139°40'0 0.1
2017-Oct-16 19:31N 35°27' E 139°39'0 0.1
2017-Oct-16 19:01N 35°27' E 139°40'0 0.0
2017-Oct-16 18:31N 35°27' E 139°40'0 0.0
2017-Oct-16 18:01N 35°27' E 139°40'0 0.0
2017-Oct-16 17:31N 35°27' E 139°40'0 0.0
2017-Oct-16 17:01N 35°27' E 139°40'0 0.1
2017-Oct-16 16:31N 35°27' E 139°39'0 0.1
2017-Oct-16 16:01N 35°27' E 139°40'0 0.0
2017-Oct-16 15:31N 35°27' E 139°40'0 0.0
2017-Oct-16 15:00N 35°27' E 139°40'0 0.0
2017-Oct-16 14:31N 35°27' E 139°40'0 0.0
2017-Oct-16 13:30N 35°27' E 139°40'0 0.0
2017-Oct-16 13:01N 35°27' E 139°40'0 0.1
2017-Oct-16 12:31N 35°27' E 139°39'0 0.1
2017-Oct-16 12:00N 35°27' E 139°40'0 0.0
2017-Oct-16 11:31N 35°27' E 139°40'0 0.1
2017-Oct-16 11:01N 35°27' E 139°39'0 0.0
2017-Oct-16 10:31N 35°27' E 139°39'0 0.0
2017-Oct-16 10:00N 35°27' E 139°39'0 0.1
2017-Oct-16 09:30N 35°27' E 139°40'0 0.0
2017-Oct-16 09:01N 35°27' E 139°40'0 0.1
2017-Oct-16 08:31N 35°27' E 139°39'0 0.0
2017-Oct-16 08:00N 35°27' E 139°39'0 0.1
2017-Oct-16 07:30N 35°27' E 139°40'0 0.0
2017-Oct-16 07:01N 35°27' E 139°40'0 0.0
2017-Oct-16 06:31N 35°27' E 139°40'0 0.0
2017-Oct-16 06:01N 35°27' E 139°40'0 0.0
2017-Oct-16 05:31N 35°27' E 139°40'0 0.0
2017-Oct-16 05:01N 35°27' E 139°40'0 0.0
2017-Oct-16 04:31N 35°27' E 139°40'0 0.1
2017-Oct-16 04:00N 35°27' E 139°39'0 0.1
2017-Oct-16 03:31N 35°27' E 139°40'0 0.0
2017-Oct-16 03:00N 35°27' E 139°40'0 0.0
2017-Oct-16 02:30N 35°27' E 139°40'0 0.0
2017-Oct-16 02:01N 35°27' E 139°40'0 0.1
2017-Oct-16 01:30N 35°27' E 139°39'0 0.1
2017-Oct-16 01:01N 35°27' E 139°40'0 0.1
2017-Oct-16 00:31N 35°27' E 139°39'0 0.0
2017-Oct-16 00:00N 35°27' E 139°39'0 0.0
2017-Oct-15 23:31N 35°27' E 139°39'1 2.9
2017-Oct-15 23:00N 35°28' E 139°41'0 0.5
2017-Oct-15 22:31N 35°28' E 139°41'2 3.1
2017-Oct-15 22:01N 35°28' E 139°43'3 5.2
2017-Oct-15 21:31N 35°26' E 139°45'2 4.3
2017-Oct-15 21:00N 35°27' E 139°43'3 6.2
2017-Oct-15 20:30N 35°27' E 139°39'1 1.1
2017-Oct-15 20:01N 35°27' E 139°40'0 0.0
2017-Oct-15 19:30N 35°27' E 139°40'0 0.0
2017-Oct-15 19:01N 35°27' E 139°40'0 0.0
2017-Oct-15 18:30N 35°27' E 139°40'0 0.1
2017-Oct-15 18:01N 35°27' E 139°39'0 0.1
2017-Oct-15 17:31N 35°27' E 139°40'0 0.0
2017-Oct-15 17:00N 35°27' E 139°40'0 0.0
2017-Oct-15 16:31N 35°27' E 139°40'0 0.0
2017-Oct-15 16:00N 35°27' E 139°40'0 0.0
2017-Oct-15 15:30N 35°27' E 139°40'0 0.0
2017-Oct-15 15:00N 35°27' E 139°40'6 6.2
2017-Oct-15 14:00N 35°30' E 139°46'0 0.2
2017-Oct-15 13:30N 35°30' E 139°46'0 0.2
2017-Oct-15 13:01N 35°30' E 139°46'0 0.0
2017-Oct-15 12:31N 35°30' E 139°46'0 0.0
2017-Oct-15 11:59N 35°30' E 139°46'0 0.0
2017-Oct-15 11:30N 35°30' E 139°46'0 0.0
2017-Oct-15 10:59N 35°30' E 139°46'0 0.0
2017-Oct-15 10:30N 35°30' E 139°46'0 0.2
2017-Oct-15 10:01N 35°30' E 139°46'0 1.0
2017-Oct-15 09:31N 35°29' E 139°46'1 2.8
2017-Oct-15 09:00N 35°28' E 139°45'1 2.3
2017-Oct-15 08:30N 35°28' E 139°43'0 0.0
2017-Oct-15 08:00N 35°28' E 139°43'0 0.8
2017-Oct-15 07:30N 35°28' E 139°43'1 2.3
2017-Oct-15 07:00N 35°28' E 139°42'2 3.5
2017-Oct-15 06:31N 35°27' E 139°43'1 2.6
2017-Oct-15 06:00N 35°27' E 139°42'2 3.8
2017-Oct-15 05:31N 35°27' E 139°40'0 0.0
2017-Oct-15 05:00N 35°27' E 139°40'0 0.0
2017-Oct-15 04:31N 35°27' E 139°40'0 0.0
2017-Oct-15 04:00N 35°27' E 139°40'0 0.0
2017-Oct-15 03:31N 35°27' E 139°40'0 0.0
2017-Oct-15 03:00N 35°27' E 139°40'0 0.0
2017-Oct-15 02:30N 35°27' E 139°40'0 0.0
2017-Oct-15 02:00N 35°27' E 139°40'0 0.2
2017-Oct-15 01:31N 35°27' E 139°40'4 8.1
2017-Oct-15 01:00N 35°28' E 139°45'0 0.6
2017-Oct-15 00:30N 35°28' E 139°44'1 1.7
2017-Oct-15 00:00N 35°28' E 139°44'0 0.0
2017-Oct-14 23:30N 35°28' E 139°44'0 0.0
2017-Oct-14 23:01N 35°28' E 139°44'0 0.0
2017-Oct-14 22:30N 35°28' E 139°44'2 4.2
2017-Oct-14 22:01N 35°27' E 139°41'0 0.4
2017-Oct-14 21:30N 35°27' E 139°42'2 4.8
2017-Oct-14 21:00N 35°27' E 139°45'4 8.3
2017-Oct-14 20:30N 35°27' E 139°40'0 0.0
2017-Oct-14 20:01N 35°27' E 139°40'0 0.0
2017-Oct-14 19:31N 35°27' E 139°40'0 0.0
2017-Oct-14 19:00N 35°27' E 139°40'0 0.0
2017-Oct-14 18:31N 35°27' E 139°40'0 0.0
2017-Oct-14 18:01N 35°27' E 139°40'0 0.0
2017-Oct-14 17:31N 35°27' E 139°40'0 0.0
2017-Oct-14 17:00N 35°27' E 139°40'0 0.0
2017-Oct-14 16:31N 35°27' E 139°40'0 0.0
2017-Oct-14 16:01N 35°27' E 139°40'0 0.0
2017-Oct-14 15:31N 35°27' E 139°40'0 0.0
2017-Oct-14 15:00N 35°27' E 139°40'0 0.0
2017-Oct-14 14:31N 35°27' E 139°40'0 0.0
2017-Oct-14 14:01N 35°27' E 139°40'0 0.0
2017-Oct-14 13:30N 35°27' E 139°40'0 0.0
2017-Oct-14 13:01N 35°27' E 139°40'0 0.0
2017-Oct-14 12:31N 35°27' E 139°40'0 0.0
2017-Oct-14 12:01N 35°27' E 139°40'0 0.0
2017-Oct-14 11:31N 35°27' E 139°40'0 0.0
2017-Oct-14 11:00N 35°27' E 139°40'0 0.1
2017-Oct-14 10:30N 35°27' E 139°39'1 1.0
2017-Oct-14 10:00N 35°27' E 139°40'1 1.2
2017-Oct-14 09:31N 35°27' E 139°40'1 1.7
2017-Oct-14 09:01N 35°27' E 139°39'0 0.1
2017-Oct-14 08:30N 35°27' E 139°40'0 0.0
2017-Oct-14 08:00N 35°27' E 139°40'0 0.0
2017-Oct-14 07:31N 35°27' E 139°40'0 0.0
2017-Oct-14 07:00N 35°27' E 139°40'0 0.0
2017-Oct-14 06:31N 35°27' E 139°40'0 0.0
2017-Oct-14 06:00N 35°27' E 139°40'0 0.0
2017-Oct-14 05:31N 35°27' E 139°40'0 0.0
2017-Oct-14 05:00N 35°27' E 139°40'0 0.0
2017-Oct-14 04:31N 35°27' E 139°40'0 0.0
2017-Oct-14 04:01N 35°27' E 139°40'0 0.0
2017-Oct-14 03:30N 35°27' E 139°40'0 0.0
2017-Oct-14 03:01N 35°27' E 139°40'0 0.0
2017-Oct-14 02:31N 35°27' E 139°40'0 0.1
2017-Oct-14 02:01N 35°27' E 139°39'0 0.1
2017-Oct-14 01:30N 35°27' E 139°40'0 0.0
2017-Oct-14 01:00N 35°27' E 139°40'0 0.1
2017-Oct-14 00:30N 35°27' E 139°39'0 0.1
2017-Oct-14 00:00N 35°27' E 139°40'1 2.1
2017-Oct-13 23:30N 35°28' E 139°40'1 2.2
2017-Oct-13 23:01N 35°28' E 139°41'1 2.6
2017-Oct-13 22:30N 35°27' E 139°43'1 2.6
2017-Oct-13 22:00N 35°27' E 139°44'4 7.9
2017-Oct-13 21:31N 35°27' E 139°40'0 0.0
2017-Oct-13 21:00N 35°27' E 139°40'0 0.0
2017-Oct-13 20:30N 35°27' E 139°40'0 0.1
2017-Oct-13 20:01N 35°27' E 139°39'0 0.1
2017-Oct-13 19:31N 35°27' E 139°40'0 0.0
2017-Oct-13 19:00N 35°27' E 139°40'0 0.1
2017-Oct-13 18:30N 35°27' E 139°39'0 0.0
2017-Oct-13 18:00N 35°27' E 139°39'0 0.1
2017-Oct-13 17:30N 35°27' E 139°40'0 0.1
2017-Oct-13 17:00N 35°27' E 139°39'0 0.0
2017-Oct-13 16:30N 35°27' E 139°39'0 0.1
2017-Oct-13 16:01N 35°27' E 139°40'0 0.0
2017-Oct-13 15:30N 35°27' E 139°40'0 0.0
2017-Oct-13 15:00N 35°27' E 139°40'0 0.0
2017-Oct-13 14:30N 35°27' E 139°40'0 0.0
2017-Oct-13 14:00N 35°27' E 139°40'0 0.0
2017-Oct-13 13:31N 35°27' E 139°40'0 0.0
2017-Oct-13 13:00N 35°27' E 139°40'0 0.0
2017-Oct-13 12:31N 35°27' E 139°40'0 0.1
2017-Oct-13 12:01N 35°27' E 139°39'0 0.1
2017-Oct-13 11:30N 35°27' E 139°40'0 0.0
2017-Oct-13 11:01N 35°27' E 139°40'0 0.1
2017-Oct-13 10:30N 35°27' E 139°39'0 0.0
2017-Oct-13 10:01N 35°27' E 139°39'0 0.0
2017-Oct-13 09:31N 35°27' E 139°39'0 0.1
2017-Oct-13 09:00N 35°27' E 139°40'0 0.0
2017-Oct-13 08:31N 35°27' E 139°40'0 0.1
2017-Oct-13 08:00N 35°27' E 139°39'0 0.1
2017-Oct-13 07:30N 35°27' E 139°40'0 0.0
2017-Oct-13 07:01N 35°27' E 139°40'0 0.0
2017-Oct-13 06:31N 35°27' E 139°40'0 0.1
2017-Oct-13 06:01N 35°27' E 139°39'0 0.0
2017-Oct-13 05:31N 35°27' E 139°39'0 0.1
2017-Oct-13 05:00N 35°27' E 139°40'4 7.4
2017-Oct-13 04:30N 35°29' E 139°43'3 6.0
2017-Oct-13 04:00N 35°31' E 139°46'2 4.9
2017-Oct-13 03:30N 35°30' E 139°44'2 4.1
2017-Oct-13 03:00N 35°28' E 139°44'0 0.7
2017-Oct-13 02:30N 35°28' E 139°44'0 0.0
2017-Oct-13 02:00N 35°28' E 139°44'0 0.0
2017-Oct-13 01:30N 35°28' E 139°44'3 5.6
2017-Oct-13 00:59N 35°30' E 139°46'0 0.1
2017-Oct-13 00:30N 35°30' E 139°47'1 2.3
2017-Oct-13 00:00N 35°29' E 139°48'2 4.7
2017-Oct-12 23:30N 35°28' E 139°45'1 2.4
2017-Oct-12 23:00N 35°28' E 139°44'0 0.0
2017-Oct-12 22:30N 35°28' E 139°44'0 0.0
2017-Oct-12 22:00N 35°28' E 139°44'0 0.1
2017-Oct-12 21:30N 35°28' E 139°44'2 3.5
2017-Oct-12 21:00N 35°28' E 139°42'0 0.2
2017-Oct-12 20:30N 35°28' E 139°42'1 1.5
2017-Oct-12 20:01N 35°28' E 139°42'2 4.2
2017-Oct-12 19:30N 35°27' E 139°40'0 0.0
2017-Oct-12 19:00N 35°27' E 139°40'0 0.0
2017-Oct-12 18:30N 35°27' E 139°40'0 0.0
2017-Oct-12 18:00N 35°27' E 139°40'0 0.1
2017-Oct-12 17:30N 35°27' E 139°39'0 0.0
2017-Oct-12 17:00N 35°27' E 139°39'0 0.0
2017-Oct-12 16:30N 35°27' E 139°39'0 0.1
2017-Oct-12 16:00N 35°27' E 139°40'0 0.1
2017-Oct-12 15:30N 35°27' E 139°39'0 0.1
2017-Oct-12 15:00N 35°27' E 139°40'0 0.1
2017-Oct-12 14:30N 35°27' E 139°39'0 0.1
2017-Oct-12 14:00N 35°27' E 139°40'0 0.0
2017-Oct-12 13:30N 35°27' E 139°40'0 0.0
2017-Oct-12 13:00N 35°27' E 139°40'0 0.0
2017-Oct-12 12:30N 35°27' E 139°40'0 0.1
2017-Oct-12 12:00N 35°27' E 139°39'0 0.0
2017-Oct-12 11:30N 35°27' E 139°39'0 0.1
2017-Oct-12 11:00N 35°27' E 139°40'0 0.1
2017-Oct-12 10:30N 35°27' E 139°39'0 0.0
2017-Oct-12 10:00N 35°27' E 139°39'0 0.0
2017-Oct-12 09:30N 35°27' E 139°39'0 0.1
2017-Oct-12 09:00N 35°27' E 139°40'0 0.0
2017-Oct-12 08:30N 35°27' E 139°40'0 0.0
2017-Oct-12 08:00N 35°27' E 139°40'0 0.1
2017-Oct-12 07:30N 35°27' E 139°39'0 0.1
2017-Oct-12 07:00N 35°27' E 139°40'0 0.0
2017-Oct-12 06:30N 35°27' E 139°40'0 0.9
2017-Oct-12 06:00N 35°27' E 139°40'4 7.3
2017-Oct-12 05:30N 35°24' E 139°41'0 0.9
2017-Oct-12 05:00N 35°24' E 139°41'1 1.9
2017-Oct-12 04:30N 35°23' E 139°40'0 0.0
2017-Oct-12 04:00N 35°23' E 139°40'0 0.0
2017-Oct-12 03:30N 35°23' E 139°40'0 0.0
2017-Oct-12 03:00N 35°23' E 139°40'0 0.0
2017-Oct-12 02:30N 35°23' E 139°40'4 8.5
2017-Oct-12 02:00N 35°27' E 139°43'1 1.7
2017-Oct-12 01:30N 35°28' E 139°43'0 0.9
2017-Oct-12 01:00N 35°27' E 139°43'2 4.5
2017-Oct-12 00:30N 35°28' E 139°41'0 0.0
2017-Oct-12 00:00N 35°28' E 139°41'0 0.0
2017-Oct-11 23:30N 35°28' E 139°41'0 0.0
2017-Oct-11 23:00N 35°28' E 139°41'2 1.2
2017-Oct-11 21:14N 35°26' E 139°43'0 1.1
2017-Oct-11 20:53N 35°27' E 139°42'2 0.1
2017-Oct-10 23:51N 35°27' E 139°40'0 0.0
2017-Oct-10 23:25N 35°27' E 139°40'0 0.1
2017-Oct-10 22:57N 35°27' E 139°39'0 0.1
2017-Oct-10 22:29N 35°27' E 139°40'0 0.0
2017-Oct-10 22:00N 35°27' E 139°40'0 0.0
2017-Oct-10 21:22N 35°27' E 139°40'0 0.0
2017-Oct-10 21:00N 35°27' E 139°40'0 0.1
2017-Oct-10 20:29N 35°27' E 139°39'0 0.1
2017-Oct-10 20:00N 35°27' E 139°40'0 0.1
2017-Oct-10 19:25N 35°27' E 139°39'0 0.0
2017-Oct-10 18:54N 35°27' E 139°39'0 0.0
2017-Oct-10 18:23N 35°27' E 139°39'0 0.0
2017-Oct-10 18:00N 35°27' E 139°39'0 0.0
2017-Oct-10 17:29N 35°27' E 139°39'0 0.1
2017-Oct-10 17:00N 35°27' E 139°40'0 0.1
2017-Oct-10 16:30N 35°27' E 139°39'0 0.1
2017-Oct-10 16:00N 35°27' E 139°40'0 0.0
2017-Oct-10 15:30N 35°27' E 139°40'0 0.0
2017-Oct-10 15:00N 35°27' E 139°40'0 0.0
2017-Oct-10 14:00N 35°27' E 139°40'0 0.1
2017-Oct-10 13:30N 35°27' E 139°39'0 0.1
2017-Oct-10 13:00N 35°27' E 139°40'0 0.0
2017-Oct-10 12:30N 35°27' E 139°40'0 0.1
2017-Oct-10 11:53N 35°27' E 139°39'0 0.0
2017-Oct-10 11:30N 35°27' E 139°39'0 0.1
2017-Oct-10 10:53N 35°27' E 139°40'0 0.0
2017-Oct-10 10:29N 35°27' E 139°40'0 0.0
2017-Oct-10 09:54N 35°27' E 139°40'0 0.1
2017-Oct-10 09:21N 35°27' E 139°39'0 0.1
2017-Oct-10 08:55N 35°27' E 139°40'0 0.1
2017-Oct-10 08:24N 35°27' E 139°39'0 0.1
2017-Oct-10 07:59N 35°27' E 139°40'0 0.0
2017-Oct-10 07:30N 35°27' E 139°40'0 0.0
2017-Oct-10 07:00N 35°27' E 139°40'0 0.0
2017-Oct-10 06:30N 35°27' E 139°40'0 0.0
2017-Oct-10 06:00N 35°27' E 139°40'0 0.0
2017-Oct-10 05:30N 35°27' E 139°40'0 0.0
2017-Oct-10 05:00N 35°27' E 139°40'0 0.0
2017-Oct-10 04:30N 35°27' E 139°40'0 0.0
2017-Oct-10 04:00N 35°27' E 139°40'0 0.1
2017-Oct-10 03:30N 35°27' E 139°39'0 0.1
2017-Oct-10 03:00N 35°27' E 139°40'0 0.0
2017-Oct-10 02:30N 35°27' E 139°40'0 0.0
2017-Oct-10 02:00N 35°27' E 139°40'0 0.0
2017-Oct-10 01:30N 35°27' E 139°40'0 0.1
2017-Oct-10 01:00N 35°27' E 139°39'0 0.1
2017-Oct-10 00:30N 35°27' E 139°40'0 0.0
2017-Oct-10 00:00N 35°27' E 139°40'0 0.0
2017-Oct-09 23:30N 35°27' E 139°40'0 0.1
2017-Oct-09 23:00N 35°27' E 139°39'0 0.1
2017-Oct-09 22:31N 35°27' E 139°40'1 2.6
2017-Oct-09 22:00N 35°26' E 139°41'1 0.7
2017-Oct-09 20:50N 35°26' E 139°42'2 4.2
2017-Oct-09 20:22N 35°27' E 139°40'0 0.0
2017-Oct-09 20:00N 35°27' E 139°40'0 0.0
2017-Oct-09 19:30N 35°27' E 139°40'0 0.1
2017-Oct-09 19:00N 35°27' E 139°39'0 0.1
2017-Oct-09 18:29N 35°27' E 139°40'0 0.0
2017-Oct-09 17:59N 35°27' E 139°40'0 0.0
2017-Oct-09 17:30N 35°27' E 139°40'0 0.0
2017-Oct-09 16:56N 35°27' E 139°40'0 0.0
2017-Oct-09 16:17N 35°27' E 139°40'0 0.0
2017-Oct-09 15:49N 35°27' E 139°40'0 0.0
2017-Oct-09 14:11N 35°27' E 139°39'0 0.2
2017-Oct-09 13:58N 35°27' E 139°40'0 0.0
2017-Oct-09 11:54N 35°27' E 139°39'3 7.4
2017-Oct-09 11:30N 35°25' E 139°42'1 1.9
2017-Oct-09 10:54N 35°24' E 139°41'2 3.4
2017-Oct-09 10:21N 35°25' E 139°43'1 4.0
2017-Oct-09 10:00N 35°25' E 139°42'0 0.0
2017-Oct-09 09:30N 35°25' E 139°42'0 0.0
2017-Oct-09 08:53N 35°26' E 139°42'1 1.9
2017-Oct-09 08:30N 35°25' E 139°41'1 2.0
2017-Oct-09 08:00N 35°25' E 139°42'0 0.4
2017-Oct-09 06:53N 35°26' E 139°42'1 2.7
2017-Oct-09 06:28N 35°27' E 139°41'1 1.3
2017-Oct-09 05:59N 35°26' E 139°41'0 0.1
2017-Oct-09 05:30N 35°26' E 139°41'1 2.5
2017-Oct-09 04:59N 35°27' E 139°40'0 0.0
2017-Oct-09 03:31N 35°27' E 139°39'0 3.0
2017-Oct-09 03:30N 35°27' E 139°40'0 0.0
2017-Oct-09 02:36N 35°27' E 139°40'0 0.3
2017-Oct-09 02:24N 35°27' E 139°39'1 1.4
2017-Oct-09 01:58N 35°27' E 139°40'1 2.0
2017-Oct-09 01:30N 35°27' E 139°41'0 0.5
2017-Oct-09 00:57N 35°27' E 139°41'1 2.8
2017-Oct-09 00:27N 35°27' E 139°40'0 0.0
2017-Oct-08 23:58N 35°27' E 139°40'0 0.0
2017-Oct-08 23:30N 35°27' E 139°40'0 0.0
2017-Oct-08 22:51N 35°27' E 139°40'0 0.1
2017-Oct-08 22:30N 35°27' E 139°39'0 0.1
2017-Oct-08 21:57N 35°27' E 139°40'0 0.0
2017-Oct-08 21:30N 35°27' E 139°40'0 0.0
2017-Oct-08 21:00N 35°27' E 139°40'0 0.0
2017-Oct-08 20:30N 35°27' E 139°40'0 0.1
2017-Oct-08 20:00N 35°27' E 139°39'0 0.1
2017-Oct-08 19:30N 35°27' E 139°40'0 0.0
2017-Oct-08 19:00N 35°27' E 139°40'0 0.1
2017-Oct-08 18:30N 35°27' E 139°39'0 0.1
2017-Oct-08 18:00N 35°27' E 139°40'0 0.0
2017-Oct-08 17:30N 35°27' E 139°40'0 0.0
2017-Oct-08 17:00N 35°27' E 139°40'0 0.1
2017-Oct-08 16:30N 35°27' E 139°39'0 0.1
2017-Oct-08 16:00N 35°27' E 139°40'0 0.0
2017-Oct-08 15:30N 35°27' E 139°40'0 0.0
2017-Oct-08 15:00N 35°27' E 139°40'0 0.0
2017-Oct-08 14:30N 35°27' E 139°40'0 0.0
2017-Oct-08 14:00N 35°27' E 139°40'0 0.0
2017-Oct-08 13:30N 35°27' E 139°40'0 0.1
2017-Oct-08 13:00N 35°27' E 139°39'0 0.0
2017-Oct-08 12:30N 35°27' E 139°39'0 0.0
2017-Oct-08 12:00N 35°27' E 139°39'0 0.1
2017-Oct-08 11:30N 35°27' E 139°40'0 0.1
2017-Oct-08 11:00N 35°27' E 139°39'0 0.0
2017-Oct-08 10:30N 35°27' E 139°39'0 0.0
2017-Oct-08 10:00N 35°27' E 139°39'0 0.0
2017-Oct-08 09:30N 35°27' E 139°39'0 0.0
2017-Oct-08 09:00N 35°27' E 139°39'0 0.0
2017-Oct-08 08:30N 35°27' E 139°39'0 0.0
2017-Oct-08 08:00N 35°27' E 139°39'0 0.1
2017-Oct-08 07:30N 35°27' E 139°40'0 0.1
2017-Oct-08 07:00N 35°27' E 139°39'0 0.1
2017-Oct-08 06:30N 35°27' E 139°40'0 0.0
2017-Oct-08 06:00N 35°27' E 139°40'0 0.0
2017-Oct-08 05:30N 35°27' E 139°40'0 0.0
2017-Oct-08 05:00N 35°27' E 139°40'0 0.0
2017-Oct-08 04:30N 35°27' E 139°40'0 0.0
2017-Oct-08 04:00N 35°27' E 139°40'0 0.0
2017-Oct-08 03:30N 35°27' E 139°40'0 0.0
2017-Oct-08 03:00N 35°27' E 139°40'0 0.1
2017-Oct-08 02:30N 35°27' E 139°39'0 0.0
2017-Oct-08 02:00N 35°27' E 139°39'0 0.1
2017-Oct-08 01:30N 35°27' E 139°40'0 0.1
2017-Oct-08 01:00N 35°27' E 139°39'0 0.1
2017-Oct-08 00:30N 35°27' E 139°40'0 0.0
2017-Oct-08 00:00N 35°27' E 139°40'0 0.0
2017-Oct-07 23:30N 35°27' E 139°40'0 0.0
2017-Oct-07 23:00N 35°27' E 139°40'0 0.1
2017-Oct-07 22:30N 35°27' E 139°39'0 0.1
2017-Oct-07 22:00N 35°27' E 139°40'0 0.0
2017-Oct-07 21:30N 35°27' E 139°40'0 0.0
2017-Oct-07 21:00N 35°27' E 139°40'0 0.1
2017-Oct-07 20:30N 35°27' E 139°39'0 0.1
2017-Oct-07 20:00N 35°27' E 139°40'0 0.1
2017-Oct-07 19:30N 35°27' E 139°39'0 0.1
2017-Oct-07 19:00N 35°27' E 139°40'0 0.0
2017-Oct-07 18:30N 35°27' E 139°40'0 0.0
2017-Oct-07 18:00N 35°27' E 139°40'0 0.0
2017-Oct-07 17:30N 35°27' E 139°40'0 0.0
2017-Oct-07 17:00N 35°27' E 139°40'0 0.0
2017-Oct-07 16:30N 35°27' E 139°40'0 0.0
2017-Oct-07 16:00N 35°27' E 139°40'0 0.0
2017-Oct-07 15:30N 35°27' E 139°40'0 0.0
2017-Oct-07 15:00N 35°27' E 139°40'0 0.0
2017-Oct-07 14:30N 35°27' E 139°40'0 0.0
2017-Oct-07 14:00N 35°27' E 139°40'0 0.0
2017-Oct-07 13:30N 35°27' E 139°40'0 0.0
2017-Oct-07 13:00N 35°27' E 139°40'0 0.0
2017-Oct-07 12:30N 35°27' E 139°40'  

Dump ship's entire track history